Data for 02/26/2013

Time Sea-Level Adjusted Pressure Absolute Pressure Temperature Relative Humidity Dew Point   
(mb) (inHg) (mb) (inHg) (C) (F) (%) (C) (F)
00:05 1014 29.94 844 24.92 -3.2 26.2 84 -5.6 21.9
00:10 1014 29.94 844 24.92 -3.2 26.2 83 -5.7 21.7
00:15 1014 29.94 844 24.92 -3.3 26.1 83 -5.7 21.7
00:20 1015 29.97 844 24.92 -3.4 25.8 84 -5.8 21.5
00:25 1015 29.97 844 24.92 -3.4 25.9 82 -6 21.2
00:30 1015 29.97 844 24.92 -3.3 26.1 82 -6 21.2
00:35 1015 29.97 844 24.92 -3.3 26 82 -6.1 21.1
00:40 1015 29.97 844 24.92 -3.8 25.3 82 -6.3 20.6
00:45 1015 29.97 844 24.92 -4.8 23.4 89 -6.4 20.6
00:50 1015 29.97 844 24.92 -5.1 22.9 90 -6.5 20.3
00:55 1015 29.97 844 24.92 -5.2 22.6 87 -7 19.4
01:00 1015 29.97 844 24.92 -5.4 22.2 88 -7.1 19.3
01:05 1015 29.97 844 24.92 -5.5 22.1 88 -7.2 19
01:10 1015 29.97 844 24.92 -5.7 21.8 88 -7.3 18.9
01:15 1015 29.97 844 24.92 -5.7 21.8 88 -7.3 18.8
01:20 1015 29.97 844 24.92 -5.3 22.5 84 -7.5 18.4
01:25 1015 29.97 844 24.92 -5.1 22.8 80 -8.1 17.4
01:30 1015 29.97 844 24.92 -5.2 22.6 79 -8.3 17
01:35 1015 29.97 844 24.92 -5.8 21.6 77 -9.2 15.5
01:40 1015 29.97 844 24.92 -5.7 21.7 74 -9.6 14.7
01:45 1015 29.97 844 24.92 -5.8 21.5 74 -9.7 14.6
01:50 1015 29.97 844 24.92 -6.1 21 75 -9.9 14.2
01:55 1015 29.97 844 24.92 -6 21.2 75 -9.8 14.4
02:00 1015 29.97 844 24.92 -6.2 20.8 76 -9.9 14.3
02:05 1015 29.97 844 24.92 -6.4 20.5 76 -10 14
02:10 1015 29.97 844 24.92 -6.6 20.2 76 -10.2 13.7
02:15 1015 29.97 844 24.92 -6.6 20.2 75 -10.2 13.6
02:20 1015 29.97 844 24.92 -6.4 20.4 74 -10.3 13.5
02:25 1015 29.97 844 24.92 -6.3 20.7 74 -10.1 13.8
02:30 1015 29.97 844 24.92 -6.2 20.8 75 -10 14
02:35 1015 29.97 845 24.95 -5.7 21.7 72 -10 14
02:40 1015 29.97 845 24.95 -5.5 22.1 71 -9.9 14.2
02:45 1015 29.97 845 24.95 -5.3 22.4 70 -10 14
02:50 1015 29.97 845 24.95 -5.2 22.6 69 -10 13.9
02:55 1015 29.97 844 24.92 -5 23 68 -10 14
03:00 1015 29.97 844 24.92 -5 23.1 68 -10 13.9
03:05 1015 29.97 844 24.92 -4.8 23.3 67 -10 14
03:10 1015 29.97 845 24.95 -4.8 23.3 66 -10.3 13.5
03:15 1015 29.97 845 24.95 -4.8 23.3 65 -10.4 13.3
03:20 1015 29.97 845 24.95 -4.8 23.3 65 -10.5 13.2
03:25 1015 29.97 845 24.95 -4.8 23.4 63 -10.7 12.7
03:30 1016 30 845 24.95 -4.8 23.4 64 -10.7 12.8
03:35 1016 30 845 24.95 -4.9 23.2 63 -10.8 12.5
03:40 1016 30 845 24.95 -5 23 63 -11 12.2
03:45 1016 30 845 24.95 -5 22.9 63 -11.1 12
03:50 1016 30 845 24.95 -5 23 62 -11.2 11.9
03:55 1016 30 845 24.95 -4.9 23.1 62 -11.1 11.9
04:00 1016 30 845 24.95 -4.9 23.2 62 -11.1 12
04:05 1016 30 845 24.95 -4.8 23.4 62 -11.1 12
04:10 1016 30 845 24.95 -4.8 23.4 62 -11 12.1
04:15 1016 30 845 24.95 -4.8 23.4 62 -11.1 12.1
04:20 1016 30 845 24.95 -4.7 23.5 61 -11.1 12
04:25 1016 30 845 24.95 -4.6 23.7 60 -11.2 11.8
04:30 1016 30 845 24.95 -4.6 23.8 60 -11.2 11.8
04:35 1016 30 845 24.95 -4.6 23.8 60 -11.2 11.9
04:40 1016 30 845 24.95 -4.6 23.7 61 -11 12.2
04:45 1016 30 845 24.95 -4.7 23.6 61 -11.2 11.8
04:50 1016 30 845 24.95 -4.6 23.6 60 -11.2 11.9
04:55 1016 30 845 24.95 -4.7 23.6 60 -11.3 11.6
05:00 1016 30 845 24.95 -4.7 23.6 60 -11.3 11.6
05:05 1016 30 845 24.95 -4.7 23.5 60 -11.4 11.4
05:10 1016 30 845 24.95 -4.7 23.5 60 -11.4 11.6
05:15 1016 30 845 24.95 -4.8 23.4 60 -11.4 11.5
05:20 1016 30 845 24.95 -4.7 23.5 58 -11.7 11
05:25 1016 30 845 24.95 -4.6 23.7 58 -11.6 11.1
05:30 1016 30 845 24.95 -4.5 23.8 58 -11.6 11.1
05:35 1016 30 845 24.95 -4.6 23.7 58 -11.7 11
05:40 1016 30 845 24.95 -4.7 23.6 57 -11.9 10.7
05:45 1016 30 846 24.98 -4.6 23.7 57 -12 10.5
05:50 1016 30 846 24.98 -4.6 23.8 56 -12 10.4
05:55 1017 30.03 846 24.98 -4.5 23.9 56 -12.1 10.2
06:00 1017 30.03 846 24.98 -4.4 24 55 -12.1 10.2
06:05 1017 30.03 846 24.98 -4.4 24 55 -12.1 10.2
06:10 1017 30.03 846 24.98 -4.4 24.1 59 -11.2 11.9
06:15 1017 30.03 846 24.98 -5 23 61 -11.3 11.6
06:20 1017 30.03 846 24.98 -5 23.1 61 -11.3 11.6
06:25 1017 30.03 846 24.98 -5 23 62 -11.2 11.9
06:30 1017 30.03 846 24.98 -5.1 22.9 61 -11.5 11.4
06:35 1017 30.03 846 24.98 -5.3 22.5 62 -11.4 11.4
06:40 1017 30.03 846 24.98 -5.4 22.3 63 -11.4 11.4
06:45 1017 30.03 847 25.01 -5.2 22.6 62 -11.4 11.6
06:50 1017 30.03 847 25.01 -5.1 22.8 61 -11.5 11.2
06:55 1017 30.03 847 25.01 -5 23 61 -11.4 11.4
07:00 1017 30.03 847 25.01 -4.9 23.2 59 -11.7 11
07:05 1017 30.03 847 25.01 -4.7 23.5 59 -11.6 11.1
07:10 1017 30.03 847 25.01 -4.7 23.5 58 -11.7 11
07:15 1017 30.03 847 25.01 -4.8 23.3 61 -11.3 11.6
07:20 1017 30.03 847 25.01 -5.1 22.8 62 -11.2 11.8
07:25 1018 30.06 847 25.01 -5.1 22.8 63 -11.1 12
07:30 1018 30.06 847 25.01 -4.9 23.1 62 -11.1 11.9
07:35 1018 30.06 847 25.01 -4.8 23.4 61 -11.3 11.7
07:40 1018 30.06 847 25.01 -4.7 23.6 59 -11.5 11.3
07:45 1018 30.06 847 25.01 -4.5 23.9 59 -11.4 11.5
07:50 1018 30.06 847 25.01 -4.4 24.1 58 -11.4 11.5
07:55 1018 30.06 847 25.01 -4.4 24.1 59 -11.2 11.8
08:00 1018 30.06 847 25.01 -4.4 24.1 60 -11.1 12
08:05 1018 30.06 847 25.01 -4.4 24.1 61 -10.8 12.5
08:10 1018 30.06 847 25.01 -4.4 24.1 61 -10.7 12.7
08:15 1018 30.06 847 25.01 -4.4 24.1 61 -10.8 12.6
08:20 1018 30.06 847 25.01 -4.4 24.1 62 -10.7 12.8
08:25 1018 30.06 847 25.01 -4.5 24 62 -10.7 12.8
08:30 1018 30.06 847 25.01 -4.4 24 63 -10.5 13.1
08:35 1018 30.06 847 25.01 -4.4 24.1 62 -10.5 13.1
08:40 1018 30.06 847 25.01 -4.3 24.3 61 -10.7 12.7
08:45 1018 30.06 847 25.01 -4.2 24.5 61 -10.7 12.7
08:50 1018 30.06 847 25.01 -4.1 24.7 61 -10.6 13
08:55 1018 30.06 847 25.01 -4.2 24.4 62 -10.5 13.1
09:00 1018 30.06 848 25.04 -4.6 23.8 64 -10.4 13.3
09:05 1018 30.06 848 25.04 -4.6 23.8 64 -10.3 13.4
09:10 1019 30.09 848 25.04 -4.7 23.5 65 -10.3 13.4
09:15 1019 30.09 848 25.04 -4.8 23.3 65 -10.4 13.3
09:20 1019 30.09 848 25.04 -4.7 23.5 61 -11.2 11.9
09:25 1019 30.09 848 25.04 -4.4 24 60 -11 12.2
09:30 1019 30.09 848 25.04 -4.4 24.1 60 -11 12.1
09:35 1019 30.09 848 25.04 -4.2 24.5 60 -10.8 12.5
09:40 1019 30.09 848 25.04 -4 24.8 60 -10.6 12.8
09:45 1019 30.09 848 25.04 -4.1 24.7 60 -10.7 12.8
09:50 1019 30.09 848 25.04 -3.9 24.9 59 -10.8 12.6
09:55 1019 30.09 848 25.04 -3.8 25.2 60 -10.4 13.2
10:00 1019 30.09 848 25.04 -3.4 25.8 56 -10.9 12.4
10:05 1019 30.09 849 25.07 -3.3 26.1 58 -10.5 13.1
10:10 1019 30.09 849 25.07 -3.2 26.2 56 -10.9 12.5
10:15 1019 30.09 849 25.07 -3.4 25.9 57 -10.7 12.7
10:20 1020 30.12 849 25.07 -3.2 26.3 58 -10.3 13.5
10:25 1020 30.12 849 25.07 -2.8 27 56 -10.4 13.2
10:30 1020 30.12 849 25.07 -2.7 27.2 55 -10.5 13
10:35 1020 30.12 849 25.07 -2.7 27.1 56 -10.3 13.4
10:40 1020 30.12 849 25.07 -2.8 27 56 -10.5 13.2
10:45 1020 30.12 849 25.07 -3.2 26.3 56 -10.7 12.7
10:50 1020 30.12 849 25.07 -3.4 25.9 59 -10.3 13.4
10:55 1020 30.12 849 25.07 -3.5 25.7 59 -10.3 13.4
11:00 1020 30.12 849 25.07 -3.4 25.9 59 -10.2 13.6
11:05 1020 30.12 849 25.07 -3.4 25.9 59 -10.2 13.6
11:10 1020 30.12 849 25.07 -3 26.6 57 -10.4 13.2
11:15 1020 30.12 849 25.07 -2.6 27.3 55 -10.5 13.1
11:20 1020 30.12 849 25.07 -2.8 26.9 56 -10.5 13
11:25 1020 30.12 849 25.07 -2.5 27.5 53 -10.7 12.7
11:30 1020 30.12 849 25.07 -2 28.4 52 -10.6 13
11:35 1020 30.12 849 25.07 -1.8 28.7 55 -9.6 14.6
11:40 1020 30.12 849 25.07 -1.5 29.3 52 -10.2 13.6
11:45 1020 30.12 849 25.07 -0.9 30.4 51 -9.9 14.1
11:50 1020 30.12 849 25.07 -1.1 30 52 -9.8 14.3
11:55 1020 30.12 849 25.07 -0.9 30.4 50 -10 13.9
12:00 1020 30.12 849 25.07 -1.5 29.2 52 -10.3 13.5
12:05 1020 30.12 849 25.07 -0.9 30.4 48 -10.7 12.8
12:10 1020 30.12 849 25.07 -0.2 31.7 50 -9.5 14.9
12:15 1020 30.12 849 25.07 -0.5 31.1 48 -10.1 13.8
12:20 1020 30.12 849 25.07 -0.3 31.5 48 -9.9 14.1
12:25 1020 30.12 849 25.07 -0.2 31.7 47 -10.2 13.7
12:30 1020 30.12 849 25.07 0.1 32.2 45 -10.6 12.9
12:35 1020 30.12 849 25.07 -0.2 31.6 48 -10 13.9
12:40 1020 30.12 849 25.07 -0.5 31.2 46 -10.7 12.7
12:45 1020 30.12 849 25.07 -0.3 31.5 45 -10.9 12.4
12:50 1020 30.12 849 25.07 -0.1 31.8 46 -10.3 13.5
12:55 1020 30.12 849 25.07 -0.6 31 47 -10.5 13.1
13:00 1020 30.12 849 25.07 -0.4 31.3 46 -10.6 13
13:05 1020 30.12 849 25.07 0.9 33.6 42 -10.7 12.7
13:10 1020 30.12 849 25.07 1.4 34.5 40 -11 12.3
13:15 1020 30.12 849 25.07 1.1 34 42 -10.5 13.1
13:20 1020 30.12 849 25.07 1.3 34.4 41 -10.6 12.9
13:25 1020 30.12 849 25.07 1.2 34.2 43 -10.2 13.7
13:30 1020 30.12 849 25.07 1.1 34 40 -11 12.3
13:35 1020 30.12 849 25.07 0 32.1 42 -11.5 11.3
13:40 1020 30.12 849 25.07 0.1 32.1 43 -11 12.2
13:45 1020 30.12 849 25.07 0.8 33.4 43 -10.6 13
13:50 1020 30.12 849 25.07 0.2 32.4 44 -10.6 12.9
13:55 1020 30.12 849 25.07 0.6 33.1 41 -11.3 11.7
14:00 1020 30.12 849 25.07 0.4 32.8 43 -10.8 12.6
14:05 1020 30.12 849 25.07 0.8 33.5 41 -10.9 12.4
14:10 1020 30.12 849 25.07 1.3 34.4 38 -11.4 11.4
14:15 1020 30.12 849 25.07 0.7 33.3 41 -10.9 12.3
14:20 1020 30.12 849 25.07 0.6 33.1 39 -11.7 10.9
14:25 1020 30.12 849 25.07 0.8 33.4 40 -11.3 11.7
14:30 1020 30.12 849 25.07 0.9 33.7 42 -10.6 12.9
14:35 1020 30.12 849 25.07 0.1 32.2 42 -11.3 11.7
14:40 1020 30.12 849 25.07 -0.1 31.8 44 -11.1 12
14:45 1020 30.12 849 25.07 -0.3 31.5 44 -11.2 11.8
14:50 1020 30.12 849 25.07 -0 31.9 43 -11.1 12
14:55 1020 30.12 849 25.07 -0.3 31.5 45 -10.9 12.3
15:00 1020 30.12 849 25.07 0 32 42 -11.4 11.5
15:05 1020 30.12 849 25.07 -0.3 31.4 43 -11.5 11.4
15:10 1020 30.12 849 25.07 -0.4 31.4 43 -11.4 11.5
15:15 1020 30.12 849 25.07 -0 31.9 42 -11.5 11.3
15:20 1020 30.12 849 25.07 0.7 33.2 42 -10.8 12.6
15:25 1020 30.12 849 25.07 1.4 34.5 41 -10.6 12.9
15:30 1020 30.12 849 25.07 1.2 34.2 42 -10.4 13.2
15:35 1020 30.12 849 25.07 1.1 34 43 -10.2 13.6
15:40 1020 30.12 849 25.07 0.6 33.1 44 -10.3 13.5
15:45 1020 30.12 849 25.07 0.7 33.3 49 -8.9 16
15:50 1020 30.12 850 25.1 -0.1 31.8 52 -8.9 16.1
15:55 1020 30.12 850 25.1 -0 32 48 -9.6 14.6
16:00 1020 30.12 850 25.1 0.3 32.5 51 -8.8 16.2
16:05 1020 30.12 850 25.1 0.3 32.5 51 -8.6 16.5
16:10 1020 30.12 850 25.1 0.3 32.6 51 -8.6 16.6
16:15 1021 30.15 850 25.1 0.9 33.6 50 -8.5 16.7
16:20 1021 30.15 850 25.1 1.3 34.3 50 -8 17.6
16:25 1021 30.15 850 25.1 0.9 33.6 50 -8.4 17
16:30 1021 30.15 850 25.1 0.4 32.7 52 -8.4 16.9
16:35 1021 30.15 850 25.1 0.3 32.5 54 -7.9 17.8
16:40 1021 30.15 850 25.1 0.7 33.2 50 -8.5 16.6
16:45 1021 30.15 850 25.1 0.6 33.1 52 -8.1 17.5
16:50 1021 30.15 850 25.1 0.3 32.5 51 -8.6 16.6
16:55 1021 30.15 850 25.1 0.3 32.6 53 -8.2 17.2
17:00 1021 30.15 850 25.1 0.5 33 50 -8.9 16.1
17:05 1021 30.15 850 25.1 0.6 33.1 50 -8.5 16.6
17:10 1021 30.15 850 25.1 0.6 33 50 -8.8 16.2
17:15 1021 30.15 850 25.1 0.9 33.6 49 -8.7 16.3
17:20 1021 30.15 850 25.1 0.9 33.7 47 -9.2 15.5
17:25 1021 30.15 850 25.1 1.2 34.1 47 -9 15.8
17:30 1021 30.15 850 25.1 1.3 34.3 46 -9.3 15.3
17:35 1021 30.15 850 25.1 1.6 34.8 45 -9.1 15.7
17:40 1021 30.15 850 25.1 1.9 35.4 43 -9.5 14.8
17:45 1021 30.15 850 25.1 1.6 34.8 45 -9.2 15.4
17:50 1021 30.15 850 25.1 0.8 33.5 49 -8.8 16.2
17:55 1021 30.15 850 25.1 -0.4 31.2 53 -8.9 16
18:00 1021 30.15 850 25.1 -0.9 30.3 55 -8.8 16.2
18:05 1021 30.15 850 25.1 -1 30.2 55 -8.9 15.9
18:10 1021 30.15 850 25.1 -0.9 30.3 55 -9 15.8
18:15 1021 30.15 850 25.1 -1.1 30.1 55 -9 15.7
18:20 1021 30.15 850 25.1 -1.1 30 54 -9.2 15.5
18:25 1021 30.15 850 25.1 -1.3 29.7 56 -8.9 16
18:30 1021 30.15 850 25.1 -1.4 29.4 56 -9.1 15.6
18:35 1021 30.15 850 25.1 -1.4 29.5 56 -9 15.7
18:40 1021 30.15 850 25.1 -1.5 29.3 56 -9.1 15.7
18:45 1021 30.15 850 25.1 -1.5 29.3 56 -9.2 15.4
18:50 1021 30.15 850 25.1 -1.6 29.1 57 -9.1 15.6
18:55 1021 30.15 850 25.1 -1.7 28.9 56 -9.3 15.2
19:00 1021 30.15 850 25.1 -1.9 28.5 58 -9.3 15.3
19:05 1021 30.15 850 25.1 -2 28.4 59 -9.1 15.7
19:10 1021 30.15 850 25.1 -2 28.4 57 -9.5 14.8
19:15 1021 30.15 851 25.13 -2 28.4 56 -9.7 14.6
19:20 1021 30.15 851 25.13 -1.9 28.6 56 -9.5 14.9
19:25 1021 30.15 851 25.13 -2.1 28.2 57 -9.6 14.7
19:30 1021 30.15 851 25.13 -2.2 28 58 -9.3 15.2
19:35 1021 30.15 851 25.13 -2.6 27.4 58 -9.7 14.6
19:40 1021 30.15 851 25.13 -2.8 26.9 57 -10.1 13.8
19:45 1021 30.15 851 25.13 -3 26.7 59 -10 14
19:50 1022 30.18 851 25.13 -3.1 26.4 57 -10.6 12.9
19:55 1022 30.18 851 25.13 -3.2 26.2 58 -10.4 13.2
20:00 1022 30.18 851 25.13 -3.1 26.4 57 -10.6 13
20:05 1022 30.18 851 25.13 -3 26.7 56 -10.5 13.1
20:10 1022 30.18 851 25.13 -2.8 26.9 57 -10.2 13.6
20:15 1022 30.18 851 25.13 -2.7 27.1 56 -10.4 13.3
20:20 1022 30.18 851 25.13 -2.6 27.4 55 -10.5 13.2
20:25 1022 30.18 851 25.13 -2.4 27.6 54 -10.5 13.1
20:30 1022 30.18 851 25.13 -2.3 27.9 54 -10.4 13.3
20:35 1022 30.18 851 25.13 -2.3 27.9 55 -10.2 13.6
20:40 1022 30.18 851 25.13 -2.4 27.6 55 -10.4 13.3
20:45 1022 30.18 851 25.13 -2.5 27.6 55 -10.4 13.2
20:50 1022 30.18 851 25.13 -2.6 27.4 57 -10 14
20:55 1022 30.18 851 25.13 -2.7 27.2 56 -10.2 13.7
21:00 1022 30.18 851 25.13 -2.8 26.9 57 -10.2 13.7
21:05 1022 30.18 851 25.13 -3 26.6 57 -10.3 13.4
21:10 1022 30.18 851 25.13 -3.4 25.8 59 -10.3 13.5
21:15 1022 30.18 851 25.13 -3.5 25.7 60 -10.2 13.6
21:20 1022 30.18 851 25.13 -3.5 25.8 59 -10.3 13.5
21:25 1022 30.18 851 25.13 -3.6 25.5 58 -10.7 12.8
21:30 1022 30.18 851 25.13 -4 24.8 59 -10.9 12.5
21:35 1022 30.18 851 25.13 -4.2 24.4 59 -11.1 12
21:40 1022 30.18 851 25.13 -4.5 23.9 59 -11.3 11.7
21:45 1022 30.18 851 25.13 -4.8 23.4 60 -11.3 11.7
21:50 1022 30.18 851 25.13 -5 23 61 -11.4 11.4
21:55 1022 30.18 851 25.13 -5.1 22.9 61 -11.5 11.3
22:00 1022 30.18 851 25.13 -5.1 22.8 62 -11.4 11.5
22:05 1022 30.18 851 25.13 -5.1 22.7 62 -11.4 11.5
22:10 1022 30.18 851 25.13 -4.7 23.5 59 -11.7 11
22:15 1022 30.18 851 25.13 -4.7 23.5 59 -11.6 11.1
22:20 1022 30.18 851 25.13 -5.1 22.9 59 -11.9 10.6
22:25 1022 30.18 851 25.13 -5.1 22.7 60 -11.7 10.9
22:30 1022 30.18 851 25.13 -5.1 22.8 59 -11.8 10.7
22:35 1022 30.18 851 25.13 -4.6 23.6 58 -11.7 11
22:40 1022 30.18 851 25.13 -4.3 24.2 56 -11.8 10.8
22:45 1022 30.18 851 25.13 -4 24.9 56 -11.5 11.3
22:50 1022 30.18 851 25.13 -3.9 25 55 -11.6 11.2
22:55 1022 30.18 851 25.13 -3.8 25.2 55 -11.5 11.3
23:00 1022 30.18 851 25.13 -3.8 25.3 55 -11.6 11.2
23:05 1022 30.18 851 25.13 -3.9 25 55 -11.6 11.2
23:10 1022 30.18 851 25.13 -4 24.9 56 -11.5 11.2
23:15 1022 30.18 851 25.13 -4.4 24.1 58 -11.5 11.2
23:20 1022 30.18 851 25.13 -4.7 23.5 59 -11.6 11.2
23:25 1022 30.18 851 25.13 -4.8 23.3 59 -11.7 10.9
23:30 1022 30.18 851 25.13 -4.7 23.5 58 -11.7 11
23:35 1022 30.18 851 25.13 -4.6 23.7 59 -11.5 11.3
23:40 1022 30.18 851 25.13 -4.4 24.1 58 -11.5 11.4
23:45 1022 30.18 851 25.13 -3.9 24.9 57 -11.3 11.7
23:50 1022 30.18 851 25.13 -3.7 25.3 56 -11.2 11.8
23:55 1022 30.18 852 25.16 -3.6 25.6 57 -11 12.2
24:00 1022 30.18 852 25.16 -3.6 25.5 57 -11 12.1